Mcbride, Canada
Current Conditions -  °F | °C
As of 12:09 AM on Friday 31 Oct 2014 (Local Time) from CYQZ Reporting Station
Overcast Overcast  
Wind Chill: 52°   Ceiling: 6500
Heat Index: 52°   Visibility: 9mi
Dew Point: 45°   Wind: 6mph
Humidity: 76%   Direction: 140°SE
Pressure: 29.6"   Gusts: NA
Location:  53.3°N, 120.17°W
Report Text: CYQZ 310709Z AUTO 14005KT 9SM FEW046 OVC065 11/07 A2960 RMK SLP032 DENSITY ALT 2100FT
Loading
Personal Weather Stations






























Interactive Weather Map
Tropical Storm Tracking
New forecast layout! Learn more

10-Day Weather Forecast

Advertisements
Track Severe Weather on mobile